Time;durP1;ratioP1;P1;durP2;ratioP2;P2;SDS_P1;SDS_P2;PMS_P1;PMS_P2;Temp;Humidity;BMP_temperature;BMP_pressure;BME280_temperature;BME280_humidity;BME280_pressure;Samples;Min_cycle;Max_cycle;Signal;HPM_P1;HPM_P2
2022/06/24 00:02:01;;;;;;;7.30;3.63;;;;;;;25.21;47.57;97354.72;8412700;28;20231;-78
2022/06/24 00:06:12;;;;;;;10.07;4.20;;;;;;;25.10;47.29;97363.88;8413692;28;20339;-78
2022/06/24 00:10:17;;;;;;;8.17;4.17;;;;;;;25.18;47.47;97360.34;8413389;28;20392;-78
2022/06/24 00:14:22;;;;;;;8.17;3.63;;;;;;;25.16;47.79;97362.34;8413102;28;20232;-78
2022/06/24 00:18:25;;;;;;;8.77;3.90;;;;;;;25.09;48.01;97361.41;8412705;28;20253;-78
2022/06/24 00:22:29;;;;;;;10.20;4.30;;;;;;;24.92;48.41;97355.34;8412940;28;20237;-78
2022/06/24 00:26:41;;;;;;;8.73;4.40;;;;;;;25.05;48.19;97360.91;8413182;28;20467;-78
2022/06/24 00:30:52;;;;;;;10.40;4.30;;;;;;;24.95;49.06;97355.84;8413041;28;20229;-78
2022/06/24 00:35:02;;;;;;;8.00;4.50;;;;;;;24.73;49.20;97364.56;8412673;28;20404;-78
2022/06/24 00:39:05;;;;;;;8.03;4.03;;;;;;;24.40;50.54;97370.75;8411510;28;20245;-78
2022/06/24 00:43:08;;;;;;;7.30;4.00;;;;;;;24.76;49.40;97378.28;8412442;28;20534;-78
2022/06/24 00:47:15;;;;;;;7.43;4.57;;;;;;;24.45;50.52;97380.03;8412636;28;20238;-78
2022/06/24 00:51:20;;;;;;;6.67;4.00;;;;;;;24.65;49.77;97372.53;8412688;28;20427;-78
2022/06/24 00:55:27;;;;;;;9.67;4.50;;;;;;;24.19;51.48;97373.13;8411815;28;20232;-77
2022/06/24 00:59:34;;;;;;;9.67;4.10;;;;;;;24.50;50.62;97373.22;8413043;28;20226;-77
2022/06/24 01:03:40;;;;;;;10.57;4.70;;;;;;;24.54;50.40;97371.06;8412711;28;20568;-77
2022/06/24 01:07:43;;;;;;;7.93;4.50;;;;;;;24.30;51.46;97370.13;8413021;28;20418;-78
2022/06/24 01:11:46;;;;;;;6.30;4.27;;;;;;;24.57;50.29;97362.81;8412780;28;20233;-76
2022/06/24 01:15:49;;;;;;;9.60;4.30;;;;;;;24.64;50.46;97374.38;8413058;28;20534;-76
2022/06/24 01:19:53;;;;;;;8.13;4.23;;;;;;;24.70;50.03;97378.16;8413079;28;20227;-77
2022/06/24 01:24:05;;;;;;;7.80;4.50;;;;;;;24.59;50.05;97374.88;8412994;28;20231;-78
2022/06/24 01:28:08;;;;;;;9.87;3.93;;;;;;;24.57;50.34;97379.50;8412650;28;20545;-77
2022/06/24 01:32:11;;;;;;;7.90;4.30;;;;;;;24.56;49.99;97379.66;8412593;28;20234;-78
2022/06/24 01:36:13;;;;;;;7.53;3.90;;;;;;;24.52;50.25;97384.50;8413138;28;20243;-86
2022/06/24 01:40:18;;;;;;;11.23;3.43;;;;;;;24.52;50.40;97375.72;8412682;28;20234;-86
2022/06/24 01:44:22;;;;;;;11.13;3.00;;;;;;;24.43;50.30;97377.56;8412967;28;20228;-85
2022/06/24 01:48:24;;;;;;;12.20;2.90;;;;;;;24.27;50.95;97382.88;8414817;28;20235;-77
2022/06/24 01:52:27;;;;;;;8.10;2.87;;;;;;;24.32;50.38;97381.38;8418436;28;20539;-76
2022/06/24 01:56:32;;;;;;;13.07;2.37;;;;;;;24.10;51.12;97380.25;8418005;28;20443;-77
2022/06/24 02:00:35;;;;;;;9.13;2.27;;;;;;;24.11;51.30;97366.03;8417891;28;20242;-77
2022/06/24 02:04:38;;;;;;;7.30;1.87;;;;;;;24.19;50.97;97363.38;8417986;28;20234;-77
2022/06/24 02:08:41;;;;;;;9.07;2.10;;;;;;;24.16;51.07;97361.09;8417495;28;20243;-77
2022/06/24 02:17:09;;;;;;;8.07;2.23;;;;;;;24.18;51.10;97382.06;8418056;28;20222;-77
2022/06/24 02:21:13;;;;;;;9.80;1.70;;;;;;;24.08;51.63;97374.31;8417840;28;20241;-77
2022/06/24 02:25:17;;;;;;;6.67;1.73;;;;;;;24.06;51.75;97368.34;8417534;28;20231;-77
2022/06/24 02:29:21;;;;;;;6.20;1.50;;;;;;;24.00;51.86;97361.91;8417343;28;20233;-77
2022/06/24 02:33:24;;;;;;;9.20;2.00;;;;;;;24.03;51.69;97363.41;8416620;28;20246;-77
2022/06/24 02:37:27;;;;;;;6.37;1.53;;;;;;;23.97;51.84;97372.84;8417118;28;20235;-77
2022/06/24 02:41:30;;;;;;;5.13;1.53;;;;;;;24.09;51.77;97367.22;8417065;28;20423;-77
2022/06/24 02:45:37;;;;;;;5.63;1.47;;;;;;;24.16;51.33;97366.38;8416952;28;20231;-78
2022/06/24 02:49:40;;;;;;;4.40;1.87;;;;;;;24.12;51.68;97358.94;8416691;28;20238;-77
2022/06/24 02:53:43;;;;;;;6.20;1.73;;;;;;;24.06;52.00;97367.53;8416617;28;20486;-77
2022/06/24 02:57:46;;;;;;;4.53;1.47;;;;;;;24.08;51.55;97360.25;8416400;28;20519;-77
2022/06/24 03:01:50;;;;;;;3.43;1.40;;;;;;;24.16;51.33;97363.72;8415325;28;20233;-77
2022/06/24 03:05:53;;;;;;;7.67;1.93;;;;;;;24.13;51.62;97350.81;8415960;28;20222;-77
2022/06/24 03:09:56;;;;;;;4.10;1.60;;;;;;;24.11;52.00;97360.75;8415917;28;20423;-77
2022/06/24 03:13:59;;;;;;;5.53;1.60;;;;;;;24.13;52.16;97365.88;8415843;28;20231;-77
2022/06/24 03:18:03;;;;;;;5.30;1.67;;;;;;;24.23;51.56;97374.44;8415891;28;20224;-77
2022/06/24 03:22:06;;;;;;;4.37;1.53;;;;;;;24.24;51.83;97375.25;8415823;28;20422;-77
2022/06/24 03:26:09;;;;;;;5.00;1.30;;;;;;;24.19;51.87;97378.44;8415566;28;20237;-77
2022/06/24 03:30:13;;;;;;;5.37;1.57;;;;;;;24.19;51.92;97378.44;8415414;28;20235;-77
2022/06/24 03:34:17;;;;;;;9.67;1.97;;;;;;;24.18;52.65;97374.16;8415045;28;20409;-77
2022/06/24 03:38:19;;;;;;;7.57;2.20;;;;;;;24.13;53.56;97373.81;8415180;28;20237;-77
2022/06/24 03:42:22;;;;;;;4.57;1.67;;;;;;;24.13;54.19;97379.09;8414454;28;20227;-77
2022/06/24 03:46:25;;;;;;;7.20;1.60;;;;;;;23.96;56.24;97371.19;8414708;28;20243;-77
2022/06/24 03:50:30;;;;;;;8.57;2.00;;;;;;;23.90;56.96;97360.47;8414764;28;20260;-76
2022/06/24 03:54:33;;;;;;;7.97;2.00;;;;;;;23.89;57.46;97361.44;8414665;28;20430;-77
2022/06/24 03:58:35;;;;;;;5.97;1.87;;;;;;;23.75;58.10;97355.81;8414791;28;20232;-77
2022/06/24 04:02:38;;;;;;;9.80;2.33;;;;;;;23.70;59.55;97350.19;8414643;28;20230;-77
2022/06/24 04:06:49;;;;;;;9.00;2.20;;;;;;;23.70;59.70;97355.47;8414309;28;20241;-77
2022/06/24 04:10:52;;;;;;;7.40;2.10;;;;;;;23.71;59.20;97346.56;8414432;28;20223;-77
2022/06/24 04:19:14;;;;;;;6.60;1.90;;;;;;;23.61;60.48;97356.47;8414147;28;20230;-77
2022/06/24 04:23:19;;;;;;;8.27;2.10;;;;;;;23.57;60.03;97355.97;8413944;28;20236;-77
2022/06/24 04:27:21;;;;;;;7.67;1.77;;;;;;;23.58;60.49;97360.25;8414020;28;20237;-77
2022/06/24 04:31:24;;;;;;;7.20;2.00;;;;;;;23.55;60.30;97365.03;8413383;28;20227;-77
2022/06/24 04:35:27;;;;;;;6.80;2.00;;;;;;;23.52;61.42;97360.09;8413872;28;20235;-76
2022/06/24 04:39:31;;;;;;;5.00;1.70;;;;;;;23.55;60.51;97363.25;8413762;28;20230;-77
2022/06/24 04:43:34;;;;;;;4.40;1.80;;;;;;;23.48;60.91;97377.28;8413847;28;20230;-76
2022/06/24 04:47:37;;;;;;;7.17;1.97;;;;;;;23.43;61.88;97359.25;8413567;28;20237;-77
2022/06/24 04:51:40;;;;;;;10.37;2.10;;;;;;;23.46;61.41;97356.31;8413728;28;20231;-77
2022/06/24 04:55:45;;;;;;;6.03;2.03;;;;;;;23.45;61.28;97356.47;8413751;28;20237;-77
2022/06/24 04:59:48;;;;;;;6.67;1.90;;;;;;;23.46;61.62;97353.66;8413441;28;20224;-75
2022/06/24 05:03:50;;;;;;;5.53;1.90;;;;;;;23.45;62.23;97356.47;8413519;28;20240;-76
2022/06/24 05:07:53;;;;;;;6.43;2.17;;;;;;;23.48;62.13;97351.69;8413298;28;20238;-76
2022/06/24 05:11:58;;;;;;;7.67;2.20;;;;;;;23.45;60.93;97359.09;8413196;28;20229;-76
2022/06/24 05:16:02;;;;;;;7.30;2.20;;;;;;;23.43;61.28;97369.84;8413225;28;20326;-76
2022/06/24 05:20:25;;;;;;;3.23;1.30;;;;;;;23.43;61.17;97375.13;8412672;28;20237;-77
2022/06/24 05:24:27;;;;;;;5.80;1.90;;;;;;;23.44;60.60;97392.63;8389863;28;20230;-76
2022/06/24 05:28:31;;;;;;;4.67;1.60;;;;;;;23.51;60.96;97396.25;8419283;28;20230;-76
2022/06/24 05:32:34;;;;;;;6.07;1.90;;;;;;;23.41;60.69;97393.78;8419177;28;20234;-75
2022/06/24 05:36:37;;;;;;;4.97;1.90;;;;;;;23.54;60.48;97387.19;8418819;28;20237;-76
2022/06/24 05:40:40;;;;;;;8.47;1.97;;;;;;;23.37;62.25;97387.16;8419048;28;20231;-76
2022/06/24 05:44:44;;;;;;;6.07;2.40;;;;;;;23.36;62.08;97387.31;8418967;28;20230;-76
2022/06/24 05:48:47;;;;;;;6.07;2.17;;;;;;;23.50;61.10;97391.97;8418736;28;20413;-76
2022/06/24 05:57:10;;;;;;;6.07;1.90;;;;;;;23.45;61.23;97391.63;8418539;28;20223;-77
2022/06/24 06:01:14;;;;;;;9.17;2.97;;;;;;;23.57;61.03;97382.41;8418409;28;20238;-77
2022/06/24 06:05:17;;;;;;;7.80;2.30;;;;;;;23.35;61.41;97375.13;8418118;28;20232;-76
2022/06/24 06:09:19;;;;;;;4.90;1.90;;;;;;;23.47;61.48;97384.38;8418035;28;20511;-76
2022/06/24 06:13:22;;;;;;;6.90;2.30;;;;;;;23.18;61.98;97384.81;8417836;28;20239;-76
2022/06/24 06:17:26;;;;;;;5.63;2.37;;;;;;;23.60;61.58;97387.34;8417943;28;20231;-76
2022/06/24 06:21:29;;;;;;;7.20;2.10;;;;;;;23.41;62.03;97382.38;8417724;28;20234;-76
2022/06/24 06:25:33;;;;;;;6.77;2.57;;;;;;;23.67;61.09;97381.44;8417591;28;20306;-76
2022/06/24 06:29:36;;;;;;;9.57;2.40;;;;;;;23.61;61.56;97386.38;8417527;28;20242;-76
2022/06/24 06:33:40;;;;;;;7.97;2.43;;;;;;;23.37;62.69;97383.69;8416511;28;20533;-76
2022/06/24 06:37:43;;;;;;;8.80;2.73;;;;;;;23.22;63.19;97379.03;8417041;28;20235;-77
2022/06/24 06:41:46;;;;;;;8.47;2.87;;;;;;;23.69;62.62;97363.59;8417392;28;20230;-79
2022/06/24 06:45:49;;;;;;;7.63;2.63;;;;;;;23.87;60.82;97379.28;8413833;28;20234;-76
2022/06/24 06:49:54;;;;;;;6.77;2.53;;;;;;;23.60;60.89;97381.25;8416932;28;20228;-76
2022/06/24 06:53:56;;;;;;;7.27;2.60;;;;;;;24.12;59.72;97380.94;8393720;28;20232;-77
2022/06/24 06:57:59;;;;;;;6.03;2.80;;;;;;;23.86;60.94;97375.84;8383697;28;20230;-77
2022/06/24 07:02:02;;;;;;;8.40;2.50;;;;;;;23.64;60.02;97361.41;8392600;28;20417;-76
2022/06/24 07:06:06;;;;;;;7.80;2.63;;;;;;;23.46;60.67;97360.78;8416094;28;20246;-76
2022/06/24 07:10:09;;;;;;;7.07;2.23;;;;;;;23.79;60.11;97358.97;8416238;28;20226;-76
2022/06/24 07:14:12;;;;;;;4.67;2.30;;;;;;;24.21;59.01;97357.91;8402989;28;20234;-76
2022/06/24 07:18:15;;;;;;;5.00;2.63;;;;;;;24.11;59.12;97354.66;8414691;28;20237;-76
2022/06/24 07:22:19;;;;;;;8.77;2.50;;;;;;;23.80;60.41;97350.06;8390284;28;20254;-75
2022/06/24 07:26:22;;;;;;;9.33;2.47;;;;;;;24.31;59.18;97341.84;8382255;28;20433;-76
2022/06/24 07:30:25;;;;;;;7.37;2.33;;;;;;;23.91;59.18;97339.16;8382340;28;20235;-76
2022/06/24 07:34:30;;;;;;;5.17;2.00;;;;;;;24.24;55.97;97338.22;8396926;28;20571;-76
2022/06/24 07:38:35;;;;;;;10.63;2.30;;;;;;;24.10;58.36;97327.34;8414856;28;20246;-77
2022/06/24 07:42:38;;;;;;;5.93;2.20;;;;;;;24.69;54.76;97328.84;8415346;28;20230;-80
2022/06/24 07:46:47;;;;;;;5.13;1.90;;;;;;;25.02;53.87;97312.75;8400110;28;20318;-77
2022/06/24 07:50:50;;;;;;;6.63;2.20;;;;;;;25.22;53.44;97321.09;8400519;28;20226;-77
2022/06/24 07:56:56;;;;;;;4.90;2.07;;;;;;;25.49;52.72;97325.88;8396026;28;20290;-77
2022/06/24 07:59:17;;;;;;;6.20;2.13;;;;;;;25.82;51.88;97324.78;8414990;28;20245;-77
2022/06/24 08:03:20;;;;;;;5.33;1.97;;;;;;;25.78;51.78;97320.81;8408840;28;20297;-76
2022/06/24 08:07:24;;;;;;;9.83;2.20;;;;;;;25.79;52.27;97311.88;8404987;28;20229;-76
2022/06/24 08:11:28;;;;;;;9.17;2.27;;;;;;;25.90;52.19;97309.59;8396386;28;20424;-76
2022/06/24 08:15:31;;;;;;;9.17;2.20;;;;;;;26.06;51.56;97308.63;8398756;28;20581;-76
2022/06/24 08:19:35;;;;;;;6.97;2.10;;;;;;;26.13;51.11;97298.13;8395189;28;20241;-76
2022/06/24 08:23:38;;;;;;;7.03;2.43;;;;;;;26.79;49.49;97289.34;8413736;28;20234;-75
2022/06/24 08:27:42;;;;;;;6.50;2.30;;;;;;;26.16;50.51;97303.06;8413937;28;20234;-75
2022/06/24 08:31:45;;;;;;;7.40;2.20;;;;;;;26.11;50.57;97286.88;8414038;28;20411;-76
2022/06/24 08:35:48;;;;;;;8.07;2.60;;;;;;;26.65;49.31;97283.06;8413939;28;20235;-76
2022/06/24 08:39:51;;;;;;;7.37;2.40;;;;;;;26.68;48.75;97288.84;8397276;28;20240;-76
2022/06/24 08:43:58;;;;;;;9.97;2.20;;;;;;;27.04;47.50;97293.31;8387108;28;20238;-76
2022/06/24 08:48:01;;;;;;;8.70;2.50;;;;;;;26.49;48.42;97292.06;8413820;28;20235;-76
2022/06/24 08:52:06;;;;;;;8.17;2.70;;;;;;;26.20;49.45;97296.38;8413889;28;20238;-76
2022/06/24 08:56:09;;;;;;;7.47;2.77;;;;;;;26.33;48.53;97301.88;8413318;28;20240;-78
2022/06/24 09:00:15;;;;;;;9.03;2.17;;;;;;;26.38;48.88;97298.66;8395434;28;20232;-78
2022/06/24 09:04:18;;;;;;;8.23;2.60;;;;;;;26.51;47.86;97296.16;8393237;28;20559;-78
2022/06/24 09:08:21;;;;;;;8.07;2.50;;;;;;;26.38;47.92;97309.28;8386257;28;20242;-77
2022/06/24 09:12:23;;;;;;;6.87;2.70;;;;;;;26.79;47.91;97295.50;8385922;28;20238;-77
2022/06/24 09:16:28;;;;;;;6.13;2.43;;;;;;;27.25;46.78;97299.69;8385708;28;20233;-77
2022/06/24 09:20:33;;;;;;;8.07;2.50;;;;;;;27.10;47.28;97283.78;8385864;28;20247;-77
2022/06/24 09:24:47;;;;;;;9.30;3.10;;;;;;;26.79;46.64;97279.56;8386119;28;20538;-77
2022/06/24 09:28:55;;;;;;;11.53;3.10;;;;;;;27.77;44.69;97279.84;8386364;28;20521;-77
2022/06/24 09:32:59;;;;;;;12.23;2.90;;;;;;;27.48;44.92;97273.72;8385933;28;20230;-77
2022/06/24 09:37:37;;;;;;;8.87;2.93;;;;;;;26.93;46.97;97267.25;8385528;28;20244;-75
2022/06/24 09:41:44;;;;;;;6.67;2.87;;;;;;;26.59;47.78;97260.75;8385923;28;20235;-76
2022/06/24 09:45:48;;;;;;;10.67;2.80;;;;;;;26.25;48.77;97269.28;8385594;28;20424;-78
2022/06/24 09:49:57;;;;;;;8.37;2.60;;;;;;;26.41;48.40;97270.94;8385424;28;20233;-77
2022/06/24 09:54:01;;;;;;;12.37;3.10;;;;;;;26.20;48.85;97267.19;8385214;28;20240;-77
2022/06/24 09:58:05;;;;;;;8.03;2.60;;;;;;;26.12;46.74;97261.97;8384866;28;20226;-76
2022/06/24 10:02:14;;;;;;;13.77;2.60;;;;;;;28.13;43.27;97254.13;8395207;28;20229;-77
2022/06/24 10:06:24;;;;;;;9.27;2.80;;;;;;;28.69;43.00;97247.81;8418320;28;20421;-78
2022/06/24 10:10:29;;;;;;;6.10;2.60;;;;;;;29.10;42.09;97245.03;8417823;28;20535;-78
2022/06/24 10:14:32;;;;;;;10.43;2.67;;;;;;;29.73;40.76;97243.84;8417976;28;20234;-78
2022/06/24 10:18:37;;;;;;;5.97;2.50;;;;;;;30.18;39.33;97251.94;8418045;28;20234;-77
2022/06/24 10:22:44;;;;;;;9.97;2.50;;;;;;;30.12;37.12;97244.75;8417892;28;20257;-77
2022/06/24 10:26:48;;;;;;;9.53;2.93;;;;;;;29.38;39.79;97241.38;8417711;28;20260;-76
2022/06/24 10:30:57;;;;;;;8.03;2.50;;;;;;;30.43;36.30;97227.25;8417856;28;20234;-77
2022/06/24 10:35:00;;;;;;;9.93;2.63;;;;;;;30.75;35.18;97225.44;8417493;28;20226;-76
2022/06/24 10:39:10;;;;;;;5.80;2.40;;;;;;;29.90;38.07;97221.00;8411168;28;20227;-75
2022/06/24 10:43:13;;;;;;;10.93;2.63;;;;;;;30.02;37.40;97221.19;8383730;28;20242;-76
2022/06/24 10:47:43;;;;;;;8.63;2.23;;;;;;;30.23;36.49;97209.41;8383802;28;20254;-76
2022/06/24 10:51:46;;;;;;;5.77;2.17;;;;;;;29.97;36.94;97211.16;8383566;28;20250;-76
2022/06/24 10:55:50;;;;;;;6.80;2.23;;;;;;;29.16;37.21;97195.44;8383306;28;20386;-77
2022/06/24 10:59:53;;;;;;;6.23;2.37;;;;;;;29.24;37.74;97200.56;8383682;28;20227;-76
2022/06/24 11:03:57;;;;;;;7.10;2.60;;;;;;;30.50;36.32;97194.13;8408207;28;20259;-76
2022/06/24 11:08:00;;;;;;;8.30;2.60;;;;;;;31.41;34.85;97183.19;8416386;28;20450;-76
2022/06/24 11:12:05;;;;;;;7.47;2.30;;;;;;;30.84;35.70;97181.34;8416110;28;20228;-76
2022/06/24 11:16:09;;;;;;;5.33;2.17;;;;;;;30.74;34.96;97173.00;8415854;28;20233;-77
2022/06/24 11:20:13;;;;;;;8.17;2.10;;;;;;;29.96;35.47;97157.97;8415419;28;20231;-77
2022/06/24 11:24:19;;;;;;;6.73;2.20;;;;;;;30.37;35.47;97160.28;8415728;28;20241;-77
2022/06/24 11:28:24;;;;;;;7.97;2.37;;;;;;;28.97;36.88;97165.88;8415643;28;20630;-77
2022/06/24 11:32:27;;;;;;;8.03;2.50;;;;;;;29.09;37.37;97154.59;8415180;28;20236;-76
2022/06/24 11:36:31;;;;;;;7.07;2.37;;;;;;;30.48;33.27;97156.13;8415241;28;20406;-76
2022/06/24 11:40:35;;;;;;;8.70;2.60;;;;;;;30.25;36.92;97158.47;8415169;28;20241;-76
2022/06/24 11:44:40;;;;;;;9.40;2.20;;;;;;;31.20;32.19;97152.31;8415017;28;20238;-76
2022/06/24 11:48:43;;;;;;;4.50;1.77;;;;;;;31.15;32.61;97150.31;8414900;28;20243;-75
2022/06/24 11:52:47;;;;;;;6.47;2.30;;;;;;;30.14;35.92;97142.09;8415009;28;20548;-77
2022/06/24 11:56:49;;;;;;;5.60;2.03;;;;;;;29.70;33.00;97149.00;8414505;28;20235;-77
2022/06/24 12:00:54;;;;;;;4.57;1.93;;;;;;;29.30;33.67;97145.59;8414717;28;20232;-78
2022/06/24 12:04:57;;;;;;;5.67;2.00;;;;;;;29.06;35.00;97147.84;8414538;28;20232;-77
2022/06/24 12:09:01;;;;;;;6.27;2.33;;;;;;;29.24;35.13;97136.56;8414541;28;20277;-77
2022/06/24 12:13:05;;;;;;;7.00;1.90;;;;;;;29.41;34.14;97134.28;8414139;28;20228;-76
2022/06/24 12:17:10;;;;;;;5.00;1.87;;;;;;;29.27;35.30;97130.84;8413315;28;20234;-77
2022/06/24 12:21:13;;;;;;;5.43;1.77;;;;;;;29.10;35.32;97132.25;8413754;28;20452;-76
2022/06/24 12:25:16;;;;;;;7.37;2.10;;;;;;;28.85;36.33;97119.56;8413718;28;20247;-78
2022/06/24 12:29:25;;;;;;;6.07;2.03;;;;;;;28.78;35.37;97113.41;8413170;28;20245;-77
2022/06/24 12:33:31;;;;;;;6.97;2.20;;;;;;;28.89;36.84;97114.63;8412103;28;20506;-77
2022/06/24 12:37:34;;;;;;;5.23;2.10;;;;;;;28.80;36.33;97119.34;8413162;28;20241;-76
2022/06/24 12:41:44;;;;;;;7.80;1.70;;;;;;;28.81;36.25;97115.66;8413347;28;20231;-76
2022/06/24 12:45:47;;;;;;;5.90;1.90;;;;;;;28.78;35.02;97106.22;8412935;28;20238;-77
2022/06/24 12:54:13;;;;;;;4.90;1.50;;;;;;;28.77;35.51;97109.91;8413198;28;20218;-77
2022/06/24 12:58:15;;;;;;;6.30;1.90;;;;;;;28.94;35.32;97107.66;8412753;28;20342;-78
2022/06/24 13:02:18;;;;;;;6.97;2.23;;;;;;;29.41;35.64;97102.28;8413731;28;20423;-78
2022/06/24 13:06:23;;;;;;;5.97;2.20;;;;;;;29.29;36.07;97096.78;8413289;28;20242;-77
2022/06/24 13:10:26;;;;;;;10.07;2.63;;;;;;;28.78;37.44;97098.22;8412605;28;20241;-78
2022/06/24 13:14:29;;;;;;;7.30;2.37;;;;;;;28.75;37.69;97079.16;8412295;28;20238;-77
2022/06/24 13:18:32;;;;;;;6.10;2.13;;;;;;;28.59;38.29;97091.88;8412960;28;20235;-77
2022/06/24 13:22:37;;;;;;;9.33;2.20;;;;;;;28.34;37.71;97085.47;8412496;28;20232;-79
2022/06/24 13:26:40;;;;;;;7.00;2.27;;;;;;;28.16;39.06;97094.84;8379520;28;20236;-77
2022/06/24 13:30:43;;;;;;;5.20;2.13;;;;;;;28.13;40.68;97089.94;8379300;28;20228;-78
2022/06/24 13:34:46;;;;;;;8.77;2.80;;;;;;;27.72;42.44;97098.78;8379362;28;20233;-77
2022/06/24 13:38:56;;;;;;;8.90;2.47;;;;;;;27.14;44.64;97101.69;8379217;28;20227;-78
2022/06/24 13:42:59;;;;;;;8.23;2.80;;;;;;;26.82;45.30;97105.72;8379419;28;20238;-78
2022/06/24 13:47:02;;;;;;;8.73;2.50;;;;;;;25.94;46.67;97105.84;8385645;28;20527;-77
2022/06/24 13:51:04;;;;;;;4.30;1.87;;;;;;;26.18;45.58;97106.50;8384479;28;20231;-77
2022/06/24 13:55:09;;;;;;;4.37;1.60;;;;;;;26.22;45.75;97094.53;8409910;28;20227;-77
2022/06/24 13:59:14;;;;;;;5.13;1.60;;;;;;;26.30;45.29;97083.78;8418596;28;20241;-78
2022/06/24 14:03:17;;;;;;;4.47;1.93;;;;;;;26.11;46.66;97101.16;8418077;28;20231;-77
2022/06/24 14:07:20;;;;;;;11.87;3.30;;;;;;;25.73;50.42;97101.28;8417937;28;20240;-78
2022/06/24 14:11:25;;;;;;;7.67;2.20;;;;;;;25.62;50.96;97094.63;8417419;28;20227;-77
2022/06/24 14:15:27;;;;;;;9.33;2.90;;;;;;;26.07;51.07;97092.75;8384988;28;20374;-77
2022/06/24 14:19:30;;;;;;;7.77;2.27;;;;;;;26.08;50.53;97104.16;8384445;28;20229;-77
2022/06/24 14:28:07;;;;;;;10.17;3.50;;;;;;;25.87;54.69;97131.44;8383664;28;20233;-77
2022/06/24 14:32:09;;;;;;;26.13;7.17;;;;;;;24.95;59.72;97185.53;8384532;28;20418;-76
2022/06/24 14:36:13;;;;;;;18.87;3.70;;;;;;;23.70;60.29;97201.34;8384329;28;20249;-75
2022/06/24 14:40:16;;;;;;;14.23;3.67;;;;;;;23.26;60.94;97239.56;8384132;28;20237;-74
2022/06/24 14:44:40;;;;;;;15.57;3.97;;;;;;;24.11;59.00;97246.22;8383716;28;20232;-76
2022/06/24 14:48:43;;;;;;;10.20;3.33;;;;;;;23.88;59.34;97246.13;8384012;28;20227;-74
2022/06/24 14:52:45;;;;;;;17.13;4.00;;;;;;;24.45;58.04;97264.41;8385381;28;20236;-74
2022/06/24 14:56:48;;;;;;;9.97;3.30;;;;;;;23.47;59.69;97240.88;8415041;28;20234;-75
2022/06/24 15:00:53;;;;;;;13.13;4.20;;;;;;;22.79;63.22;97258.63;8416744;28;20219;-74
2022/06/24 15:04:56;;;;;;;17.00;3.63;;;;;;;23.93;58.88;97217.31;8415603;28;20320;-76
2022/06/24 15:08:59;;;;;;;12.40;3.77;;;;;;;24.09;57.71;97245.56;8416466;28;20535;-74
2022/06/24 15:13:02;;;;;;;12.80;3.00;;;;;;;24.30;57.06;97240.50;8415840;28;20231;-74
2022/06/24 15:17:06;;;;;;;10.97;3.23;;;;;;;24.40;56.67;97225.22;8415759;28;20517;-74
2022/06/24 15:21:09;;;;;;;8.23;2.87;;;;;;;24.49;56.57;97230.50;8416069;28;20268;-74
2022/06/24 15:25:17;;;;;;;7.60;3.03;;;;;;;23.75;58.76;97236.84;8415839;28;20232;-73
2022/06/24 15:29:19;;;;;;;10.10;2.90;;;;;;;23.16;61.08;97241.56;8415400;28;20236;-74
2022/06/24 15:33:24;;;;;;;7.97;3.20;;;;;;;23.83;58.47;97230.75;8414707;28;20245;-74
2022/06/24 15:37:29;;;;;;;9.03;3.23;;;;;;;23.95;58.61;97239.13;8411543;28;20246;-74
2022/06/24 15:41:32;;;;;;;9.63;2.73;;;;;;;23.99;58.65;97238.63;8412003;28;20568;-74
2022/06/24 15:45:36;;;;;;;11.37;2.70;;;;;;;24.32;57.82;97232.41;8415195;28;20230;-73
2022/06/24 15:49:40;;;;;;;10.47;3.00;;;;;;;24.45;57.30;97230.00;8414974;28;20255;-73
2022/06/24 15:53:42;;;;;;;7.70;2.80;;;;;;;24.47;57.47;97220.06;8414517;28;20227;-74
2022/06/24 15:57:45;;;;;;;7.60;2.90;;;;;;;24.56;57.40;97215.56;8414872;28;20418;-74
2022/06/24 16:01:48;;;;;;;9.77;2.63;;;;;;;24.57;57.37;97222.53;8414793;28;20227;-74
2022/06/24 16:05:52;;;;;;;9.03;3.00;;;;;;;24.61;56.93;97226.47;8414037;28;20292;-76
2022/06/24 16:09:55;;;;;;;8.27;2.70;;;;;;;24.56;57.33;97216.41;8414770;28;20517;-74
2022/06/24 16:13:59;;;;;;;5.70;2.30;;;;;;;24.59;57.19;97215.22;8414360;28;20404;-74
2022/06/24 16:18:02;;;;;;;10.60;2.93;;;;;;;24.59;57.12;97213.41;8414042;28;20374;-75
2022/06/24 16:22:06;;;;;;;6.47;2.37;;;;;;;24.59;56.83;97215.22;8414316;28;20238;-74
2022/06/24 16:30:29;;;;;;;7.47;2.40;;;;;;;24.69;56.88;97205.22;8413708;28;20232;-75
2022/06/24 16:34:32;;;;;;;7.53;3.00;;;;;;;24.65;56.82;97190.69;8414167;28;20235;-74
2022/06/24 16:38:39;;;;;;;8.03;2.43;;;;;;;24.65;56.94;97180.13;8413714;28;20235;-75
2022/06/24 16:43:15;;;;;;;7.63;2.50;;;;;;;24.72;56.80;97170.47;8413568;28;20243;-75
2022/06/24 16:47:06;;;;;;;7.00;2.57;;;;;;;24.36;57.57;97172.84;8413874;28;20531;-74
2022/06/24 16:51:11;;;;;;;12.13;2.80;;;;;;;24.01;59.69;97172.38;8412985;28;20282;-75
2022/06/24 16:55:15;;;;;;;9.10;3.57;;;;;;;24.18;59.12;97170.47;8405021;28;20398;-76
2022/06/24 16:59:18;;;;;;;9.00;2.93;;;;;;;24.42;58.13;97158.91;8413552;28;20231;-74
2022/06/24 17:03:25;;;;;;;11.60;3.17;;;;;;;24.02;59.66;97146.75;8413659;28;20254;-76
2022/06/24 17:07:29;;;;;;;10.10;2.67;;;;;;;24.22;59.27;97152.41;8412882;28;20233;-76
2022/06/24 17:11:34;;;;;;;6.83;2.70;;;;;;;24.40;58.66;97145.84;8413549;28;20400;-79
2022/06/24 17:15:36;;;;;;;7.83;2.60;;;;;;;24.34;59.17;97148.38;8413453;28;20236;-77
2022/06/24 17:19:39;;;;;;;12.47;2.83;;;;;;;24.54;58.97;97148.75;8420087;28;20245;-77
2022/06/24 17:23:42;;;;;;;8.47;2.80;;;;;;;24.57;58.93;97138.66;8419602;28;20262;-76
2022/06/24 17:27:46;;;;;;;8.77;2.70;;;;;;;24.62;58.62;97153.16;8419438;28;20239;-77
2022/06/24 17:31:49;;;;;;;13.17;2.60;;;;;;;24.71;58.68;97152.97;8419187;28;20228;-76
2022/06/24 17:35:52;;;;;;;9.43;2.80;;;;;;;24.63;58.18;97154.84;8419204;28;20319;-78
2022/06/24 17:39:55;;;;;;;6.13;2.50;;;;;;;24.70;57.94;97158.44;8419395;28;20237;-78
2022/06/24 17:43:59;;;;;;;11.57;2.67;;;;;;;24.77;57.85;97167.31;8415483;28;20545;-80
2022/06/24 17:48:02;;;;;;;10.50;2.50;;;;;;;24.76;57.85;97174.41;8418071;28;20234;-80
2022/06/24 17:52:05;;;;;;;12.57;2.77;;;;;;;24.77;57.70;97176.06;8418467;28;20234;-77
2022/06/24 17:56:08;;;;;;;11.10;2.30;;;;;;;24.68;57.72;97173.66;8418419;28;20230;-77
2022/06/24 18:00:14;;;;;;;9.67;2.60;;;;;;;24.80;57.69;97180.19;8418367;28;20233;-75
2022/06/24 18:04:17;;;;;;;4.90;2.10;;;;;;;24.75;57.60;97196.59;8418344;28;20310;-75
2022/06/24 18:08:20;;;;;;;8.50;2.43;;;;;;;24.78;57.84;97200.72;8417788;28;20267;-77
2022/06/24 18:12:23;;;;;;;7.83;2.03;;;;;;;24.76;57.76;97203.53;8417456;28;20379;-81
2022/06/24 18:16:27;;;;;;;7.23;2.30;;;;;;;24.77;58.43;97215.78;8418057;28;20243;-85
2022/06/24 18:20:30;;;;;;;5.10;2.10;;;;;;;24.50;58.62;97224.19;8417921;28;20464;-79
2022/06/24 18:24:33;;;;;;;5.40;2.40;;;;;;;24.00;59.44;97221.75;8416826;28;20265;-76
2022/06/24 18:28:37;;;;;;;7.27;2.63;;;;;;;23.78;60.63;97228.63;8417282;28;20231;-77
2022/06/24 18:32:42;;;;;;;5.57;2.40;;;;;;;23.61;60.66;97241.00;8417064;28;20243;-77
2022/06/24 18:36:45;;;;;;;3.87;2.20;;;;;;;23.56;61.77;97234.59;8416997;28;20243;-77
2022/06/24 18:40:48;;;;;;;6.80;2.20;;;;;;;23.51;62.17;97253.56;8416934;28;20231;-77
2022/06/24 18:44:51;;;;;;;5.23;2.50;;;;;;;23.38;62.52;97254.09;8417580;28;20233;-77
2022/06/24 18:49:20;;;;;;;7.07;2.60;;;;;;;23.33;62.39;97253.75;8417806;28;20235;-77
2022/06/24 18:53:23;;;;;;;5.37;2.50;;;;;;;23.36;62.56;97260.50;8416258;28;20253;-76
2022/06/24 18:57:27;;;;;;;4.80;2.27;;;;;;;23.37;62.97;97275.38;8416313;28;20230;-77
2022/06/24 19:01:30;;;;;;;4.90;2.63;;;;;;;23.35;62.23;97278.19;8416723;28;20236;-78
2022/06/24 19:05:35;;;;;;;5.77;2.47;;;;;;;23.32;62.57;97288.25;8416024;28;20231;-76
2022/06/24 19:09:38;;;;;;;12.27;3.00;;;;;;;23.34;63.48;97300.34;8415915;28;20241;-77
2022/06/24 19:13:41;;;;;;;7.83;2.80;;;;;;;23.26;63.26;97313.50;8415758;28;20294;-77
2022/06/24 19:17:44;;;;;;;7.73;2.97;;;;;;;23.23;63.25;97327.88;8415918;28;20230;-77
2022/06/24 19:21:49;;;;;;;8.53;2.87;;;;;;;23.18;64.62;97337.28;8415801;28;20523;-76
2022/06/24 19:25:52;;;;;;;9.60;2.70;;;;;;;23.14;62.55;97338.59;8415640;28;20223;-77
2022/06/24 19:29:55;;;;;;;8.37;2.40;;;;;;;23.31;62.76;97356.13;8415687;28;20232;-83
2022/06/24 19:33:58;;;;;;;7.67;3.00;;;;;;;23.37;63.30;97359.94;8415313;28;20229;-77